sensor_id;sensor_type;location;lat;lon;timestamp;P1;durP1;ratioP1;P2;durP2;ratioP2
7493;SDS011;3788;49.902;8.590;2023-06-26T00:01:01;4.33;;;3.93;;
7493;SDS011;3788;49.902;8.590;2023-06-26T00:03:30;4.70;;;4.30;;
7493;SDS011;3788;49.902;8.590;2023-06-26T00:05:57;4.30;;;4.00;;
7493;SDS011;3788;49.902;8.590;2023-06-26T00:08:25;4.90;;;4.23;;
7493;SDS011;3788;49.902;8.590;2023-06-26T00:10:52;4.47;;;4.10;;
7493;SDS011;3788;49.902;8.590;2023-06-26T00:13:20;4.30;;;3.90;;
7493;SDS011;3788;49.902;8.590;2023-06-26T00:15:47;4.40;;;4.00;;
7493;SDS011;3788;49.902;8.590;2023-06-26T00:18:14;4.20;;;3.80;;
7493;SDS011;3788;49.902;8.590;2023-06-26T00:20:41;4.27;;;3.87;;
7493;SDS011;3788;49.902;8.590;2023-06-26T00:23:07;4.00;;;3.60;;
7493;SDS011;3788;49.902;8.590;2023-06-26T00:25:34;4.30;;;3.50;;
7493;SDS011;3788;49.902;8.590;2023-06-26T00:28:01;4.70;;;4.30;;
7493;SDS011;3788;49.902;8.590;2023-06-26T00:30:29;4.13;;;3.83;;
7493;SDS011;3788;49.902;8.590;2023-06-26T00:32:55;4.40;;;4.00;;
7493;SDS011;3788;49.902;8.590;2023-06-26T00:35:22;4.30;;;3.90;;
7493;SDS011;3788;49.902;8.590;2023-06-26T00:37:49;4.50;;;4.10;;
7493;SDS011;3788;49.902;8.590;2023-06-26T00:40:16;4.30;;;3.90;;
7493;SDS011;3788;49.902;8.590;2023-06-26T00:42:42;4.03;;;3.73;;
7493;SDS011;3788;49.902;8.590;2023-06-26T00:45:09;4.53;;;4.13;;
7493;SDS011;3788;49.902;8.590;2023-06-26T00:47:37;4.70;;;4.23;;
7493;SDS011;3788;49.902;8.590;2023-06-26T00:50:05;4.30;;;3.90;;
7493;SDS011;3788;49.902;8.590;2023-06-26T00:52:32;4.47;;;4.07;;
7493;SDS011;3788;49.902;8.590;2023-06-26T00:54:59;4.10;;;3.80;;
7493;SDS011;3788;49.902;8.590;2023-06-26T00:57:26;4.13;;;3.83;;
7493;SDS011;3788;49.902;8.590;2023-06-26T00:59:53;4.10;;;3.80;;
7493;SDS011;3788;49.902;8.590;2023-06-26T01:02:20;4.40;;;3.90;;
7493;SDS011;3788;49.902;8.590;2023-06-26T01:04:48;4.97;;;4.53;;
7493;SDS011;3788;49.902;8.590;2023-06-26T01:07:15;3.90;;;3.60;;
7493;SDS011;3788;49.902;8.590;2023-06-26T01:09:43;4.03;;;3.70;;
7493;SDS011;3788;49.902;8.590;2023-06-26T01:12:11;4.60;;;4.20;;
7493;SDS011;3788;49.902;8.590;2023-06-26T01:14:37;3.93;;;3.63;;
7493;SDS011;3788;49.902;8.590;2023-06-26T01:17:04;4.33;;;3.93;;
7493;SDS011;3788;49.902;8.590;2023-06-26T01:19:32;3.83;;;3.53;;
7493;SDS011;3788;49.902;8.590;2023-06-26T01:22:02;3.93;;;3.63;;
7493;SDS011;3788;49.902;8.590;2023-06-26T01:24:39;3.90;;;3.60;;
7493;SDS011;3788;49.902;8.590;2023-06-26T01:27:12;4.00;;;3.63;;
7493;SDS011;3788;49.902;8.590;2023-06-26T01:29:40;4.57;;;4.17;;
7493;SDS011;3788;49.902;8.590;2023-06-26T01:32:08;4.13;;;3.73;;
7493;SDS011;3788;49.902;8.590;2023-06-26T01:34:35;4.30;;;3.90;;
7493;SDS011;3788;49.902;8.590;2023-06-26T01:37:02;4.07;;;3.70;;
7493;SDS011;3788;49.902;8.590;2023-06-26T01:39:29;3.97;;;3.57;;
7493;SDS011;3788;49.902;8.590;2023-06-26T01:41:56;4.30;;;3.90;;
7493;SDS011;3788;49.902;8.590;2023-06-26T01:44:26;4.60;;;4.20;;
7493;SDS011;3788;49.902;8.590;2023-06-26T01:46:58;4.20;;;3.90;;
7493;SDS011;3788;49.902;8.590;2023-06-26T01:49:29;4.00;;;3.63;;
7493;SDS011;3788;49.902;8.590;2023-06-26T01:52:03;4.07;;;3.77;;
7493;SDS011;3788;49.902;8.590;2023-06-26T01:54:35;3.73;;;3.40;;
7493;SDS011;3788;49.902;8.590;2023-06-26T01:57:08;4.33;;;3.97;;
7493;SDS011;3788;49.902;8.590;2023-06-26T01:59:38;5.83;;;4.33;;
7493;SDS011;3788;49.902;8.590;2023-06-26T02:02:08;4.47;;;4.07;;
7493;SDS011;3788;49.902;8.590;2023-06-26T02:04:35;4.13;;;3.80;;
7493;SDS011;3788;49.902;8.590;2023-06-26T02:07:02;4.03;;;3.73;;
7493;SDS011;3788;49.902;8.590;2023-06-26T02:09:29;4.10;;;3.80;;
7493;SDS011;3788;49.902;8.590;2023-06-26T02:11:55;4.63;;;4.23;;
7493;SDS011;3788;49.902;8.590;2023-06-26T02:14:22;4.47;;;4.07;;
7493;SDS011;3788;49.902;8.590;2023-06-26T02:16:50;4.03;;;3.63;;
7493;SDS011;3788;49.902;8.590;2023-06-26T02:19:17;4.37;;;3.97;;
7493;SDS011;3788;49.902;8.590;2023-06-26T02:21:46;4.47;;;4.07;;
7493;SDS011;3788;49.902;8.590;2023-06-26T02:24:13;3.93;;;3.53;;
7493;SDS011;3788;49.902;8.590;2023-06-26T02:26:40;4.53;;;4.13;;
7493;SDS011;3788;49.902;8.590;2023-06-26T02:29:06;4.03;;;3.73;;
7493;SDS011;3788;49.902;8.590;2023-06-26T02:31:33;4.97;;;4.53;;
7493;SDS011;3788;49.902;8.590;2023-06-26T02:34:01;4.60;;;4.20;;
7493;SDS011;3788;49.902;8.590;2023-06-26T02:36:28;4.10;;;3.70;;
7493;SDS011;3788;49.902;8.590;2023-06-26T02:38:55;4.63;;;4.23;;
7493;SDS011;3788;49.902;8.590;2023-06-26T02:41:21;4.23;;;3.93;;
7493;SDS011;3788;49.902;8.590;2023-06-26T02:43:48;4.57;;;4.17;;
7493;SDS011;3788;49.902;8.590;2023-06-26T02:46:15;4.93;;;4.20;;
7493;SDS011;3788;49.902;8.590;2023-06-26T02:48:41;4.77;;;4.30;;
7493;SDS011;3788;49.902;8.590;2023-06-26T02:51:09;4.80;;;4.50;;
7493;SDS011;3788;49.902;8.590;2023-06-26T02:53:36;4.40;;;4.00;;
7493;SDS011;3788;49.902;8.590;2023-06-26T02:56:03;4.67;;;4.27;;
7493;SDS011;3788;49.902;8.590;2023-06-26T02:58:30;4.73;;;4.33;;
7493;SDS011;3788;49.902;8.590;2023-06-26T03:00:57;4.13;;;3.83;;
7493;SDS011;3788;49.902;8.590;2023-06-26T03:03:23;4.73;;;4.33;;
7493;SDS011;3788;49.902;8.590;2023-06-26T03:05:50;4.27;;;3.87;;
7493;SDS011;3788;49.902;8.590;2023-06-26T03:08:19;4.37;;;4.00;;
7493;SDS011;3788;49.902;8.590;2023-06-26T03:10:46;4.50;;;4.10;;
7493;SDS011;3788;49.902;8.590;2023-06-26T03:13:12;4.73;;;4.33;;
7493;SDS011;3788;49.902;8.590;2023-06-26T03:15:39;4.57;;;4.17;;
7493;SDS011;3788;49.902;8.590;2023-06-26T03:18:06;5.43;;;4.93;;
7493;SDS011;3788;49.902;8.590;2023-06-26T03:20:34;5.20;;;4.70;;
7493;SDS011;3788;49.902;8.590;2023-06-26T03:23:01;5.03;;;4.53;;
7493;SDS011;3788;49.902;8.590;2023-06-26T03:25:30;5.03;;;4.63;;
7493;SDS011;3788;49.902;8.590;2023-06-26T03:27:57;5.07;;;4.57;;
7493;SDS011;3788;49.902;8.590;2023-06-26T03:30:23;4.63;;;4.23;;
7493;SDS011;3788;49.902;8.590;2023-06-26T03:32:50;5.10;;;4.70;;
7493;SDS011;3788;49.902;8.590;2023-06-26T03:35:16;5.20;;;4.73;;
7493;SDS011;3788;49.902;8.590;2023-06-26T03:37:43;6.00;;;5.40;;
7493;SDS011;3788;49.902;8.590;2023-06-26T03:40:10;5.50;;;5.00;;
7493;SDS011;3788;49.902;8.590;2023-06-26T03:42:38;6.27;;;5.67;;
7493;SDS011;3788;49.902;8.590;2023-06-26T03:45:05;4.97;;;4.57;;
7493;SDS011;3788;49.902;8.590;2023-06-26T03:47:32;5.77;;;4.50;;
7493;SDS011;3788;49.902;8.590;2023-06-26T03:49:59;5.50;;;5.00;;
7493;SDS011;3788;49.902;8.590;2023-06-26T03:52:26;5.50;;;5.00;;
7493;SDS011;3788;49.902;8.590;2023-06-26T03:54:55;5.47;;;4.97;;
7493;SDS011;3788;49.902;8.590;2023-06-26T03:57:22;4.93;;;4.50;;
7493;SDS011;3788;49.902;8.590;2023-06-26T03:59:52;5.23;;;4.73;;
7493;SDS011;3788;49.902;8.590;2023-06-26T04:02:18;5.47;;;4.87;;
7493;SDS011;3788;49.902;8.590;2023-06-26T04:04:45;6.10;;;4.93;;
7493;SDS011;3788;49.902;8.590;2023-06-26T04:07:12;5.07;;;4.67;;
7493;SDS011;3788;49.902;8.590;2023-06-26T04:09:38;6.07;;;5.47;;
7493;SDS011;3788;49.902;8.590;2023-06-26T04:12:05;4.93;;;4.53;;
7493;SDS011;3788;49.902;8.590;2023-06-26T04:14:33;5.37;;;4.87;;
7493;SDS011;3788;49.902;8.590;2023-06-26T04:17:00;4.93;;;4.43;;
7493;SDS011;3788;49.902;8.590;2023-06-26T04:19:28;5.00;;;4.50;;
7493;SDS011;3788;49.902;8.590;2023-06-26T04:21:55;5.00;;;4.60;;
7493;SDS011;3788;49.902;8.590;2023-06-26T04:24:22;5.97;;;5.00;;
7493;SDS011;3788;49.902;8.590;2023-06-26T04:26:48;5.33;;;4.90;;
7493;SDS011;3788;49.902;8.590;2023-06-26T04:29:15;5.20;;;4.70;;
7493;SDS011;3788;49.902;8.590;2023-06-26T04:31:42;5.00;;;4.60;;
7493;SDS011;3788;49.902;8.590;2023-06-26T04:34:12;5.20;;;4.70;;
7493;SDS011;3788;49.902;8.590;2023-06-26T04:36:39;5.23;;;4.73;;
7493;SDS011;3788;49.902;8.590;2023-06-26T04:39:05;5.63;;;5.13;;
7493;SDS011;3788;49.902;8.590;2023-06-26T04:41:32;5.00;;;4.60;;
7493;SDS011;3788;49.902;8.590;2023-06-26T04:43:59;5.50;;;5.00;;
7493;SDS011;3788;49.902;8.590;2023-06-26T04:46:26;5.60;;;5.10;;
7493;SDS011;3788;49.902;8.590;2023-06-26T04:48:53;5.23;;;4.77;;
7493;SDS011;3788;49.902;8.590;2023-06-26T04:51:24;5.53;;;5.03;;
7493;SDS011;3788;49.902;8.590;2023-06-26T04:53:52;6.00;;;5.40;;
7493;SDS011;3788;49.902;8.590;2023-06-26T04:56:18;5.53;;;5.03;;
7493;SDS011;3788;49.902;8.590;2023-06-26T04:58:45;5.70;;;4.73;;
7493;SDS011;3788;49.902;8.590;2023-06-26T05:01:11;5.87;;;5.37;;
7493;SDS011;3788;49.902;8.590;2023-06-26T05:03:38;6.00;;;5.40;;
7493;SDS011;3788;49.902;8.590;2023-06-26T05:06:05;6.57;;;5.90;;
7493;SDS011;3788;49.902;8.590;2023-06-26T05:08:34;6.00;;;5.50;;
7493;SDS011;3788;49.902;8.590;2023-06-26T05:11:00;6.00;;;5.50;;
7493;SDS011;3788;49.902;8.590;2023-06-26T05:13:27;6.00;;;5.40;;
7493;SDS011;3788;49.902;8.590;2023-06-26T05:15:54;6.13;;;5.63;;
7493;SDS011;3788;49.902;8.590;2023-06-26T05:18:21;6.07;;;5.57;;
7493;SDS011;3788;49.902;8.590;2023-06-26T05:20:47;5.70;;;5.20;;
7493;SDS011;3788;49.902;8.590;2023-06-26T05:23:16;6.13;;;5.53;;
7493;SDS011;3788;49.902;8.590;2023-06-26T05:25:45;6.27;;;5.63;;
7493;SDS011;3788;49.902;8.590;2023-06-26T05:28:13;5.37;;;4.87;;
7493;SDS011;3788;49.902;8.590;2023-06-26T05:30:40;6.17;;;5.57;;
7493;SDS011;3788;49.902;8.590;2023-06-26T05:33:08;6.90;;;5.93;;
7493;SDS011;3788;49.902;8.590;2023-06-26T05:35:37;6.30;;;5.70;;
7493;SDS011;3788;49.902;8.590;2023-06-26T05:38:03;5.37;;;4.87;;
7493;SDS011;3788;49.902;8.590;2023-06-26T05:40:31;6.87;;;6.27;;
7493;SDS011;3788;49.902;8.590;2023-06-26T05:43:01;6.57;;;5.83;;
7493;SDS011;3788;49.902;8.590;2023-06-26T05:45:28;6.63;;;5.97;;
7493;SDS011;3788;49.902;8.590;2023-06-26T05:47:55;6.33;;;5.73;;
7493;SDS011;3788;49.902;8.590;2023-06-26T05:50:22;6.23;;;5.63;;
7493;SDS011;3788;49.902;8.590;2023-06-26T05:52:49;6.17;;;5.57;;
7493;SDS011;3788;49.902;8.590;2023-06-26T05:55:17;6.40;;;5.80;;
7493;SDS011;3788;49.902;8.590;2023-06-26T05:57:44;5.80;;;5.30;;
7493;SDS011;3788;49.902;8.590;2023-06-26T06:00:14;8.67;;;5.30;;
7493;SDS011;3788;49.902;8.590;2023-06-26T06:02:41;6.43;;;5.83;;
7493;SDS011;3788;49.902;8.590;2023-06-26T06:05:08;6.43;;;5.87;;
7493;SDS011;3788;49.902;8.590;2023-06-26T06:07:36;7.43;;;5.53;;
7493;SDS011;3788;49.902;8.590;2023-06-26T06:10:03;5.77;;;5.27;;
7493;SDS011;3788;49.902;8.590;2023-06-26T06:12:30;5.87;;;5.07;;
7493;SDS011;3788;49.902;8.590;2023-06-26T06:14:57;5.93;;;5.33;;
7493;SDS011;3788;49.902;8.590;2023-06-26T06:17:25;5.97;;;5.37;;
7493;SDS011;3788;49.902;8.590;2023-06-26T06:19:51;7.27;;;6.50;;
7493;SDS011;3788;49.902;8.590;2023-06-26T06:22:18;5.53;;;5.03;;
7493;SDS011;3788;49.902;8.590;2023-06-26T06:24:45;6.50;;;5.90;;
7493;SDS011;3788;49.902;8.590;2023-06-26T06:27:12;6.33;;;5.70;;
7493;SDS011;3788;49.902;8.590;2023-06-26T06:29:39;7.40;;;6.70;;
7493;SDS011;3788;49.902;8.590;2023-06-26T06:32:06;7.67;;;6.70;;
7493;SDS011;3788;49.902;8.590;2023-06-26T06:34:34;6.87;;;6.27;;
7493;SDS011;3788;49.902;8.590;2023-06-26T06:37:01;6.60;;;5.90;;
7493;SDS011;3788;49.902;8.590;2023-06-26T06:39:28;6.80;;;6.20;;
7493;SDS011;3788;49.902;8.590;2023-06-26T06:41:55;6.97;;;6.27;;
7493;SDS011;3788;49.902;8.590;2023-06-26T06:44:24;7.77;;;6.30;;
7493;SDS011;3788;49.902;8.590;2023-06-26T06:46:51;7.63;;;5.80;;
7493;SDS011;3788;49.902;8.590;2023-06-26T06:49:18;7.00;;;6.07;;
7493;SDS011;3788;49.902;8.590;2023-06-26T06:51:46;7.43;;;6.47;;
7493;SDS011;3788;49.902;8.590;2023-06-26T06:54:15;6.97;;;6.37;;
7493;SDS011;3788;49.902;8.590;2023-06-26T06:56:42;7.67;;;6.80;;
7493;SDS011;3788;49.902;8.590;2023-06-26T06:59:11;7.23;;;5.90;;
7493;SDS011;3788;49.902;8.590;2023-06-26T07:01:39;7.93;;;6.57;;
7493;SDS011;3788;49.902;8.590;2023-06-26T07:04:06;7.93;;;6.53;;
7493;SDS011;3788;49.902;8.590;2023-06-26T07:06:32;6.87;;;6.27;;
7493;SDS011;3788;49.902;8.590;2023-06-26T07:09:01;6.80;;;6.20;;
7493;SDS011;3788;49.902;8.590;2023-06-26T07:11:28;7.30;;;6.60;;
7493;SDS011;3788;49.902;8.590;2023-06-26T07:13:55;6.37;;;5.77;;
7493;SDS011;3788;49.902;8.590;2023-06-26T07:16:25;6.80;;;6.03;;
7493;SDS011;3788;49.902;8.590;2023-06-26T07:18:52;5.67;;;5.17;;
7493;SDS011;3788;49.902;8.590;2023-06-26T07:21:19;7.07;;;6.17;;
7493;SDS011;3788;49.902;8.590;2023-06-26T07:23:47;6.50;;;5.80;;
7493;SDS011;3788;49.902;8.590;2023-06-26T07:26:15;6.10;;;5.50;;
7493;SDS011;3788;49.902;8.590;2023-06-26T07:28:41;6.97;;;6.27;;
7493;SDS011;3788;49.902;8.590;2023-06-26T07:31:08;5.93;;;5.30;;
7493;SDS011;3788;49.902;8.590;2023-06-26T07:33:35;10.17;;;6.70;;
7493;SDS011;3788;49.902;8.590;2023-06-26T07:36:02;6.87;;;6.17;;
7493;SDS011;3788;49.902;8.590;2023-06-26T07:38:29;9.67;;;5.67;;
7493;SDS011;3788;49.902;8.590;2023-06-26T07:40:55;6.80;;;5.47;;
7493;SDS011;3788;49.902;8.590;2023-06-26T07:43:24;6.20;;;5.70;;
7493;SDS011;3788;49.902;8.590;2023-06-26T07:45:50;6.43;;;5.83;;
7493;SDS011;3788;49.902;8.590;2023-06-26T07:48:18;7.50;;;6.80;;
7493;SDS011;3788;49.902;8.590;2023-06-26T07:50:45;8.67;;;6.40;;
7493;SDS011;3788;49.902;8.590;2023-06-26T07:53:11;6.90;;;6.30;;
7493;SDS011;3788;49.902;8.590;2023-06-26T07:55:38;6.33;;;5.83;;
7493;SDS011;3788;49.902;8.590;2023-06-26T07:58:06;6.60;;;6.03;;
7493;SDS011;3788;49.902;8.590;2023-06-26T08:00:35;6.53;;;6.03;;
7493;SDS011;3788;49.902;8.590;2023-06-26T08:03:01;6.53;;;5.93;;
7493;SDS011;3788;49.902;8.590;2023-06-26T08:05:28;6.47;;;5.97;;
7493;SDS011;3788;49.902;8.590;2023-06-26T08:07:55;6.45;;;5.85;;
7493;SDS011;3788;49.902;8.590;2023-06-26T08:10:22;6.72;;;6.13;;
7493;SDS011;3788;49.902;8.590;2023-06-26T08:12:49;8.13;;;6.82;;
7493;SDS011;3788;49.902;8.590;2023-06-26T08:15:17;7.05;;;6.38;;
7493;SDS011;3788;49.902;8.590;2023-06-26T08:17:46;6.82;;;6.32;;
7493;SDS011;3788;49.902;8.590;2023-06-26T08:20:15;6.90;;;6.20;;
7493;SDS011;3788;49.902;8.590;2023-06-26T08:22:42;6.28;;;5.78;;
7493;SDS011;3788;49.902;8.590;2023-06-26T08:25:09;6.93;;;6.32;;
7493;SDS011;3788;49.902;8.590;2023-06-26T08:27:36;7.15;;;6.55;;
7493;SDS011;3788;49.902;8.590;2023-06-26T08:30:03;7.25;;;6.60;;
7493;SDS011;3788;49.902;8.590;2023-06-26T08:32:30;7.05;;;6.45;;
7493;SDS011;3788;49.902;8.590;2023-06-26T08:34:59;6.70;;;6.15;;
7493;SDS011;3788;49.902;8.590;2023-06-26T08:37:25;6.65;;;6.13;;
7493;SDS011;3788;49.902;8.590;2023-06-26T08:39:52;6.68;;;6.07;;
7493;SDS011;3788;49.902;8.590;2023-06-26T08:42:19;6.28;;;5.78;;
7493;SDS011;3788;49.902;8.590;2023-06-26T08:44:46;6.85;;;5.90;;
7493;SDS011;3788;49.902;8.590;2023-06-26T08:47:13;6.40;;;5.78;;
7493;SDS011;3788;49.902;8.590;2023-06-26T08:49:42;6.75;;;6.13;;
7493;SDS011;3788;49.902;8.590;2023-06-26T08:52:17;6.47;;;5.90;;
7493;SDS011;3788;49.902;8.590;2023-06-26T08:54:51;6.43;;;5.93;;
7493;SDS011;3788;49.902;8.590;2023-06-26T08:57:23;6.38;;;5.88;;
7493;SDS011;3788;49.902;8.590;2023-06-26T08:59:51;6.60;;;6.07;;
7493;SDS011;3788;49.902;8.590;2023-06-26T09:02:18;6.85;;;6.25;;
7493;SDS011;3788;49.902;8.590;2023-06-26T09:04:47;6.68;;;6.07;;
7493;SDS011;3788;49.902;8.590;2023-06-26T09:07:14;6.45;;;5.85;;
7493;SDS011;3788;49.902;8.590;2023-06-26T09:09:42;6.55;;;6.00;;
7493;SDS011;3788;49.902;8.590;2023-06-26T09:12:10;6.18;;;5.68;;
7493;SDS011;3788;49.902;8.590;2023-06-26T09:14:36;6.38;;;5.80;;
7493;SDS011;3788;49.902;8.590;2023-06-26T09:17:03;6.32;;;5.82;;
7493;SDS011;3788;49.902;8.590;2023-06-26T09:19:30;5.75;;;5.28;;
7493;SDS011;3788;49.902;8.590;2023-06-26T09:21:57;5.75;;;5.25;;
7493;SDS011;3788;49.902;8.590;2023-06-26T09:24:24;6.10;;;5.50;;
7493;SDS011;3788;49.902;8.590;2023-06-26T09:26:52;5.78;;;5.28;;
7493;SDS011;3788;49.902;8.590;2023-06-26T09:29:19;5.65;;;5.15;;
7493;SDS011;3788;49.902;8.590;2023-06-26T09:31:46;5.80;;;5.40;;
7493;SDS011;3788;49.902;8.590;2023-06-26T09:34:13;5.78;;;5.28;;
7493;SDS011;3788;49.902;8.590;2023-06-26T09:36:43;5.68;;;5.18;;
7493;SDS011;3788;49.902;8.590;2023-06-26T09:39:14;6.22;;;5.72;;
7493;SDS011;3788;49.902;8.590;2023-06-26T09:41:41;6.45;;;5.03;;
7493;SDS011;3788;49.902;8.590;2023-06-26T09:44:12;6.32;;;5.50;;
7493;SDS011;3788;49.902;8.590;2023-06-26T09:46:39;5.68;;;5.18;;
7493;SDS011;3788;49.902;8.590;2023-06-26T09:49:08;6.18;;;5.57;;
7493;SDS011;3788;49.902;8.590;2023-06-26T09:51:36;6.15;;;5.68;;
7493;SDS011;3788;49.902;8.590;2023-06-26T09:54:05;5.35;;;4.85;;
7493;SDS011;3788;49.902;8.590;2023-06-26T09:56:33;5.40;;;5.00;;
7493;SDS011;3788;49.902;8.590;2023-06-26T09:59:01;5.57;;;5.13;;
7493;SDS011;3788;49.902;8.590;2023-06-26T10:01:30;6.40;;;5.50;;
7493;SDS011;3788;49.902;8.590;2023-06-26T10:03:58;5.90;;;5.47;;
7493;SDS011;3788;49.902;8.590;2023-06-26T10:06:26;5.70;;;5.18;;
7493;SDS011;3788;49.902;8.590;2023-06-26T10:08:58;5.68;;;5.18;;
7493;SDS011;3788;49.902;8.590;2023-06-26T10:11:29;5.90;;;5.40;;
7493;SDS011;3788;49.902;8.590;2023-06-26T10:13:59;5.87;;;5.37;;
7493;SDS011;3788;49.902;8.590;2023-06-26T10:16:27;5.60;;;5.10;;
7493;SDS011;3788;49.902;8.590;2023-06-26T10:19:00;6.20;;;5.60;;
7493;SDS011;3788;49.902;8.590;2023-06-26T10:21:29;5.87;;;5.37;;
7493;SDS011;3788;49.902;8.590;2023-06-26T10:23:57;5.70;;;5.20;;
7493;SDS011;3788;49.902;8.590;2023-06-26T10:26:24;5.50;;;5.00;;
7493;SDS011;3788;49.902;8.590;2023-06-26T10:28:54;5.40;;;5.00;;
7493;SDS011;3788;49.902;8.590;2023-06-26T10:31:23;5.37;;;4.97;;
7493;SDS011;3788;49.902;8.590;2023-06-26T10:33:52;5.93;;;5.17;;
7493;SDS011;3788;49.902;8.590;2023-06-26T10:36:28;4.83;;;4.43;;
7493;SDS011;3788;49.902;8.590;2023-06-26T10:38:57;5.70;;;5.17;;
7493;SDS011;3788;49.902;8.590;2023-06-26T10:41:25;6.60;;;5.10;;
7493;SDS011;3788;49.902;8.590;2023-06-26T10:43:57;5.57;;;5.07;;
7493;SDS011;3788;49.902;8.590;2023-06-26T10:46:33;5.70;;;5.10;;
7493;SDS011;3788;49.902;8.590;2023-06-26T10:49:00;5.87;;;5.40;;
7493;SDS011;3788;49.902;8.590;2023-06-26T10:51:29;6.00;;;5.50;;
7493;SDS011;3788;49.902;8.590;2023-06-26T10:53:57;5.07;;;4.67;;
7493;SDS011;3788;49.902;8.590;2023-06-26T10:59:16;5.97;;;5.47;;
7493;SDS011;3788;49.902;8.590;2023-06-26T11:01:44;5.67;;;5.17;;
7493;SDS011;3788;49.902;8.590;2023-06-26T11:04:12;5.40;;;5.00;;
7493;SDS011;3788;49.902;8.590;2023-06-26T11:06:44;5.70;;;5.30;;
7493;SDS011;3788;49.902;8.590;2023-06-26T11:09:14;5.40;;;5.00;;
7493;SDS011;3788;49.902;8.590;2023-06-26T11:11:59;6.33;;;5.73;;
7493;SDS011;3788;49.902;8.590;2023-06-26T11:14:32;4.87;;;4.53;;
7493;SDS011;3788;49.902;8.590;2023-06-26T11:17:01;5.60;;;5.10;;
7493;SDS011;3788;49.902;8.590;2023-06-26T11:19:29;6.20;;;5.63;;
7493;SDS011;3788;49.902;8.590;2023-06-26T11:22:01;5.90;;;5.33;;
7493;SDS011;3788;49.902;8.590;2023-06-26T11:24:29;4.83;;;4.47;;
7493;SDS011;3788;49.902;8.590;2023-06-26T11:26:59;5.80;;;5.40;;
7493;SDS011;3788;49.902;8.590;2023-06-26T11:29:28;6.87;;;5.17;;
7493;SDS011;3788;49.902;8.590;2023-06-26T11:32:02;6.00;;;5.40;;
7493;SDS011;3788;49.902;8.590;2023-06-26T11:34:34;4.87;;;4.40;;
7493;SDS011;3788;49.902;8.590;2023-06-26T11:37:04;5.40;;;4.90;;
7493;SDS011;3788;49.902;8.590;2023-06-26T11:39:32;5.23;;;4.83;;
7493;SDS011;3788;49.902;8.590;2023-06-26T11:41:59;5.40;;;5.00;;
7493;SDS011;3788;49.902;8.590;2023-06-26T11:44:28;5.40;;;5.00;;
7493;SDS011;3788;49.902;8.590;2023-06-26T11:46:56;6.40;;;4.93;;
7493;SDS011;3788;49.902;8.590;2023-06-26T11:49:24;8.80;;;5.20;;
7493;SDS011;3788;49.902;8.590;2023-06-26T11:51:52;7.03;;;5.03;;
7493;SDS011;3788;49.902;8.590;2023-06-26T11:57:07;5.73;;;5.23;;
7493;SDS011;3788;49.902;8.590;2023-06-26T11:59:34;7.03;;;5.97;;
7493;SDS011;3788;49.902;8.590;2023-06-26T12:02:04;6.33;;;5.70;;
7493;SDS011;3788;49.902;8.590;2023-06-26T12:04:32;6.90;;;5.70;;
7493;SDS011;3788;49.902;8.590;2023-06-26T12:07:00;6.43;;;5.73;;
7493;SDS011;3788;49.902;8.590;2023-06-26T12:09:30;6.73;;;6.13;;
7493;SDS011;3788;49.902;8.590;2023-06-26T12:11:59;6.97;;;6.27;;
7493;SDS011;3788;49.902;8.590;2023-06-26T12:14:27;6.63;;;6.03;;
7493;SDS011;3788;49.902;8.590;2023-06-26T12:16:54;6.50;;;5.90;;
7493;SDS011;3788;49.902;8.590;2023-06-26T12:19:23;7.17;;;6.33;;
7493;SDS011;3788;49.902;8.590;2023-06-26T12:21:52;8.20;;;7.40;;
7493;SDS011;3788;49.902;8.590;2023-06-26T12:24:21;7.23;;;6.57;;
7493;SDS011;3788;49.902;8.590;2023-06-26T12:26:49;7.90;;;7.10;;
7493;SDS011;3788;49.902;8.590;2023-06-26T12:29:20;7.53;;;6.77;;
7493;SDS011;3788;49.902;8.590;2023-06-26T12:31:49;12.77;;;8.77;;
7493;SDS011;3788;49.902;8.590;2023-06-26T12:34:18;9.30;;;8.03;;
7493;SDS011;3788;49.902;8.590;2023-06-26T12:36:46;8.33;;;7.53;;
7493;SDS011;3788;49.902;8.590;2023-06-26T12:39:15;8.70;;;7.60;;
7493;SDS011;3788;49.902;8.590;2023-06-26T12:41:46;8.30;;;7.50;;
7493;SDS011;3788;49.902;8.590;2023-06-26T12:44:21;8.37;;;7.57;;
7493;SDS011;3788;49.902;8.590;2023-06-26T12:46:53;8.23;;;7.10;;
7493;SDS011;3788;49.902;8.590;2023-06-26T12:49:28;8.37;;;7.57;;
7493;SDS011;3788;49.902;8.590;2023-06-26T12:51:55;8.90;;;8.00;;
7493;SDS011;3788;49.902;8.590;2023-06-26T12:54:22;7.70;;;7.00;;
7493;SDS011;3788;49.902;8.590;2023-06-26T12:56:49;7.17;;;6.47;;
7493;SDS011;3788;49.902;8.590;2023-06-26T12:59:15;6.33;;;5.73;;
7493;SDS011;3788;49.902;8.590;2023-06-26T13:01:43;6.97;;;5.50;;
7493;SDS011;3788;49.902;8.590;2023-06-26T13:04:10;4.77;;;4.33;;
7493;SDS011;3788;49.902;8.590;2023-06-26T13:06:36;5.17;;;4.67;;
7493;SDS011;3788;49.902;8.590;2023-06-26T13:09:04;6.20;;;4.87;;
7493;SDS011;3788;49.902;8.590;2023-06-26T13:11:30;5.87;;;5.33;;
7493;SDS011;3788;49.902;8.590;2023-06-26T13:13:57;5.20;;;4.70;;
7493;SDS011;3788;49.902;8.590;2023-06-26T13:16:24;5.07;;;4.57;;
7493;SDS011;3788;49.902;8.590;2023-06-26T13:18:53;5.83;;;4.47;;
7493;SDS011;3788;49.902;8.590;2023-06-26T13:21:20;4.13;;;3.73;;
7493;SDS011;3788;49.902;8.590;2023-06-26T13:23:47;4.00;;;3.57;;
7493;SDS011;3788;49.902;8.590;2023-06-26T13:26:14;3.57;;;3.20;;
7493;SDS011;3788;49.902;8.590;2023-06-26T13:28:41;5.53;;;4.10;;
7493;SDS011;3788;49.902;8.590;2023-06-26T13:31:07;5.93;;;4.33;;
7493;SDS011;3788;49.902;8.590;2023-06-26T13:33:34;5.20;;;4.70;;
7493;SDS011;3788;49.902;8.590;2023-06-26T13:36:03;5.57;;;5.07;;
7493;SDS011;3788;49.902;8.590;2023-06-26T13:38:30;5.80;;;5.30;;
7493;SDS011;3788;49.902;8.590;2023-06-26T13:40:59;5.27;;;4.73;;
7493;SDS011;3788;49.902;8.590;2023-06-26T13:43:26;5.87;;;5.37;;
7493;SDS011;3788;49.902;8.590;2023-06-26T13:45:55;5.47;;;5.07;;
7493;SDS011;3788;49.902;8.590;2023-06-26T13:48:22;5.30;;;4.83;;
7493;SDS011;3788;49.902;8.590;2023-06-26T13:50:50;6.63;;;4.80;;
7493;SDS011;3788;49.902;8.590;2023-06-26T13:53:18;5.30;;;4.80;;
7493;SDS011;3788;49.902;8.590;2023-06-26T13:55:45;5.13;;;4.67;;
7493;SDS011;3788;49.902;8.590;2023-06-26T13:58:12;5.07;;;4.67;;
7493;SDS011;3788;49.902;8.590;2023-06-26T14:00:39;5.17;;;4.27;;
7493;SDS011;3788;49.902;8.590;2023-06-26T14:03:06;5.40;;;4.90;;
7493;SDS011;3788;49.902;8.590;2023-06-26T14:05:34;5.50;;;4.57;;
7493;SDS011;3788;49.902;8.590;2023-06-26T14:08:03;4.97;;;4.47;;
7493;SDS011;3788;49.902;8.590;2023-06-26T14:10:32;4.70;;;4.30;;
7493;SDS011;3788;49.902;8.590;2023-06-26T14:12:59;4.43;;;3.90;;
7493;SDS011;3788;49.902;8.590;2023-06-26T14:15:25;4.50;;;3.53;;
7493;SDS011;3788;49.902;8.590;2023-06-26T14:17:52;4.60;;;4.13;;
7493;SDS011;3788;49.902;8.590;2023-06-26T14:20:20;4.20;;;3.80;;
7493;SDS011;3788;49.902;8.590;2023-06-26T14:22:48;4.53;;;3.63;;
7493;SDS011;3788;49.902;8.590;2023-06-26T14:25:15;4.03;;;3.50;;
7493;SDS011;3788;49.902;8.590;2023-06-26T14:27:44;4.27;;;3.87;;
7493;SDS011;3788;49.902;8.590;2023-06-26T14:30:11;4.03;;;3.47;;
7493;SDS011;3788;49.902;8.590;2023-06-26T14:32:38;4.00;;;3.70;;
7493;SDS011;3788;49.902;8.590;2023-06-26T14:35:05;5.63;;;3.60;;
7493;SDS011;3788;49.902;8.590;2023-06-26T14:37:32;4.20;;;3.80;;
7493;SDS011;3788;49.902;8.590;2023-06-26T14:39:58;4.07;;;3.67;;
7493;SDS011;3788;49.902;8.590;2023-06-26T14:42:25;3.53;;;3.23;;
7493;SDS011;3788;49.902;8.590;2023-06-26T14:44:53;4.27;;;3.60;;
7493;SDS011;3788;49.902;8.590;2023-06-26T14:47:19;3.50;;;3.20;;
7493;SDS011;3788;49.902;8.590;2023-06-26T14:49:46;3.50;;;3.10;;
7493;SDS011;3788;49.902;8.590;2023-06-26T14:52:13;8.13;;;3.67;;
7493;SDS011;3788;49.902;8.590;2023-06-26T14:54:39;6.80;;;4.20;;
7493;SDS011;3788;49.902;8.590;2023-06-26T14:57:06;6.30;;;4.30;;
7493;SDS011;3788;49.902;8.590;2023-06-26T14:59:33;6.47;;;3.63;;
7493;SDS011;3788;49.902;8.590;2023-06-26T15:02:01;3.50;;;3.20;;
7493;SDS011;3788;49.902;8.590;2023-06-26T15:04:28;4.03;;;3.30;;
7493;SDS011;3788;49.902;8.590;2023-06-26T15:06:56;6.40;;;3.23;;
7493;SDS011;3788;49.902;8.590;2023-06-26T15:09:23;3.33;;;2.90;;
7493;SDS011;3788;49.902;8.590;2023-06-26T15:11:50;2.80;;;2.40;;
7493;SDS011;3788;49.902;8.590;2023-06-26T15:14:17;4.80;;;3.13;;
7493;SDS011;3788;49.902;8.590;2023-06-26T15:16:44;4.47;;;2.90;;
7493;SDS011;3788;49.902;8.590;2023-06-26T15:19:11;2.70;;;2.37;;
7493;SDS011;3788;49.902;8.590;2023-06-26T15:21:38;4.37;;;2.43;;
7493;SDS011;3788;49.902;8.590;2023-06-26T15:24:05;2.90;;;2.60;;